createdAt,value
2023-12-10T00:01:41.752Z,59.88
2023-12-10T00:04:29.896Z,64.40
2023-12-10T00:07:15.946Z,62.85
2023-12-10T00:10:01.450Z,62.70
2023-12-10T00:12:47.065Z,61.03
2023-12-10T00:15:33.105Z,59.50
2023-12-10T00:18:18.710Z,61.15
2023-12-10T00:21:05.006Z,58.05
2023-12-10T00:23:50.777Z,51.97
2023-12-10T00:26:36.275Z,62.47
2023-12-10T00:29:21.824Z,61.13
2023-12-10T00:32:07.591Z,55.55
2023-12-10T00:34:53.543Z,61.10
2023-12-10T00:37:39.821Z,52.83
2023-12-10T00:40:25.576Z,55.75
2023-12-10T00:43:13.841Z,58.10
2023-12-10T00:45:59.387Z,56.88
2023-12-10T00:48:45.015Z,57.75
2023-12-10T00:51:31.075Z,53.95
2023-12-10T00:54:19.612Z,57.08
2023-12-10T00:57:05.268Z,49.83
2023-12-10T00:59:51.085Z,56.45
2023-12-10T01:02:36.698Z,53.67
2023-12-10T01:05:22.107Z,55.03
2023-12-10T01:08:07.899Z,53.95
2023-12-10T01:10:53.750Z,52.45
2023-12-10T01:13:39.071Z,53.17
2023-12-10T01:16:24.756Z,50.95
2023-12-10T01:19:10.583Z,46.80
2023-12-10T01:21:56.163Z,49.35
2023-12-10T01:24:41.548Z,51.63
2023-12-10T01:27:29.679Z,47.17
2023-12-10T01:30:15.696Z,45.60
2023-12-10T01:33:01.356Z,48.50
2023-12-10T01:35:47.045Z,52.40
2023-12-10T01:38:33.357Z,47.53
2023-12-10T01:41:22.767Z,48.47
2023-12-10T01:44:10.875Z,48.47
2023-12-10T01:46:57.731Z,45.88
2023-12-10T01:49:43.598Z,49.13
2023-12-10T01:52:29.823Z,48.50
2023-12-10T01:55:18.035Z,52.75
2023-12-10T01:58:05.308Z,53.08
2023-12-10T02:00:51.229Z,50.90
2023-12-10T02:03:37.513Z,50.38
2023-12-10T02:06:25.897Z,51.70
2023-12-10T02:09:14.114Z,51.38
2023-12-10T02:12:00.115Z,47.47
2023-12-10T02:14:45.989Z,48.83
2023-12-10T02:17:31.608Z,44.08
2023-12-10T02:20:19.043Z,41.58
2023-12-10T02:23:43.313Z,45.00
2023-12-10T02:26:29.302Z,43.40
2023-12-10T02:29:14.950Z,43.47
2023-12-10T02:32:00.713Z,39.67
2023-12-10T02:34:46.645Z,41.53
2023-12-10T02:37:32.801Z,46.78
2023-12-10T02:40:18.708Z,43.00
2023-12-10T02:43:05.026Z,42.50
2023-12-10T02:45:51.085Z,42.03
2023-12-10T02:48:37.029Z,38.05
2023-12-10T02:51:23.015Z,41.05
2023-12-10T02:54:08.709Z,37.60
2023-12-10T02:56:54.097Z,37.38
2023-12-10T02:59:39.563Z,38.15
2023-12-10T03:02:25.128Z,39.50
2023-12-10T03:05:10.709Z,40.20
2023-12-10T03:07:56.451Z,37.10
2023-12-10T03:10:41.968Z,40.03
2023-12-10T03:13:27.609Z,39.70
2023-12-10T03:16:13.030Z,38.35
2023-12-10T03:18:58.600Z,37.55
2023-12-10T03:21:44.607Z,40.22
2023-12-10T03:24:30.103Z,38.35
2023-12-10T03:27:15.782Z,39.55
2023-12-10T03:30:01.472Z,36.40
2023-12-10T03:32:47.016Z,39.42
2023-12-10T03:35:32.516Z,38.58
2023-12-10T03:38:18.019Z,37.83
2023-12-10T03:41:03.929Z,36.42
2023-12-10T03:43:51.705Z,37.08
2023-12-10T03:46:37.260Z,41.03
2023-12-10T03:49:22.790Z,42.00
2023-12-10T03:52:08.230Z,39.00
2023-12-10T03:54:53.676Z,39.00
2023-12-10T03:57:39.791Z,40.83
2023-12-10T04:00:25.348Z,42.58
2023-12-10T04:03:11.074Z,38.08
2023-12-10T04:05:56.629Z,40.17
2023-12-10T04:08:42.095Z,40.50
2023-12-10T04:11:27.602Z,42.30
2023-12-10T04:14:13.914Z,39.88
2023-12-10T04:16:59.810Z,41.53
2023-12-10T04:19:45.587Z,39.25
2023-12-10T04:22:31.683Z,43.70
2023-12-10T04:25:20.445Z,41.70
2023-12-10T04:28:08.181Z,45.13
2023-12-10T04:30:54.210Z,46.83
2023-12-10T04:33:40.507Z,43.58
2023-12-10T04:36:26.496Z,44.53
2023-12-10T04:39:16.748Z,45.72
2023-12-10T04:42:02.680Z,41.28
2023-12-10T04:44:48.283Z,47.70
2023-12-10T04:47:37.323Z,45.70
2023-12-10T04:50:23.273Z,46.75
2023-12-10T04:53:08.916Z,50.60
2023-12-10T04:55:54.372Z,51.38
2023-12-10T04:58:39.942Z,51.45
2023-12-10T05:01:25.682Z,53.00
2023-12-10T05:04:11.698Z,47.17
2023-12-10T05:06:57.747Z,54.63
2023-12-10T05:09:43.253Z,64.60
2023-12-10T05:12:29.740Z,67.05
2023-12-10T05:15:16.815Z,70.18
2023-12-10T05:18:05.962Z,77.47
2023-12-10T05:20:55.059Z,71.95
2023-12-10T05:23:41.124Z,58.33
2023-12-10T05:26:26.785Z,68.80
2023-12-10T05:29:12.313Z,56.30
2023-12-10T05:31:58.012Z,59.13
2023-12-10T05:34:43.747Z,62.38
2023-12-10T05:37:29.655Z,68.13
2023-12-10T05:40:15.199Z,57.50
2023-12-10T05:43:00.773Z,60.08
2023-12-10T05:45:46.799Z,65.65
2023-12-10T05:48:32.952Z,63.65
2023-12-10T05:51:18.660Z,75.00
2023-12-10T05:54:04.413Z,67.40
2023-12-10T05:56:49.800Z,62.03
2023-12-10T05:59:35.228Z,56.60
2023-12-10T06:02:23.115Z,64.85
2023-12-10T06:05:12.620Z,56.88
2023-12-10T06:07:58.744Z,53.15
2023-12-10T06:10:44.222Z,57.75
2023-12-10T06:13:29.509Z,62.42
2023-12-10T06:16:15.067Z,52.28
2023-12-10T06:19:00.840Z,54.55
2023-12-10T06:21:46.758Z,54.53
2023-12-10T06:24:32.365Z,48.60
2023-12-10T06:27:18.096Z,54.83
2023-12-10T06:30:04.588Z,63.55
2023-12-10T06:32:52.791Z,59.38
2023-12-10T06:35:39.271Z,54.80
2023-12-10T06:38:24.645Z,53.58
2023-12-10T06:41:13.097Z,54.70
2023-12-10T06:43:58.515Z,54.30
2023-12-10T06:46:44.009Z,59.55
2023-12-10T06:49:29.876Z,56.10
2023-12-10T06:52:18.638Z,54.63
2023-12-10T06:55:04.852Z,61.63
2023-12-10T06:57:50.772Z,64.90
2023-12-10T07:00:36.335Z,67.85
2023-12-10T07:03:22.255Z,61.63
2023-12-10T07:06:08.316Z,59.80
2023-12-10T07:08:53.755Z,57.65
2023-12-10T07:11:39.377Z,53.65
2023-12-10T07:14:24.894Z,58.97
2023-12-10T07:17:10.679Z,59.53
2023-12-10T07:19:58.729Z,63.95
2023-12-10T07:22:44.555Z,58.72
2023-12-10T07:25:30.396Z,62.40
2023-12-10T07:28:15.931Z,69.78
2023-12-10T07:31:01.580Z,66.60
2023-12-10T07:33:49.703Z,55.33
2023-12-10T07:36:37.610Z,82.75
2023-12-10T07:39:24.412Z,76.85
2023-12-10T07:42:09.881Z,56.78
2023-12-10T07:44:55.942Z,58.13
2023-12-10T07:47:41.704Z,65.00
2023-12-10T07:50:28.883Z,60.40
2023-12-10T07:53:15.267Z,60.80
2023-12-10T07:56:01.212Z,57.08
2023-12-10T07:58:46.888Z,60.83
2023-12-10T08:01:32.684Z,65.40
2023-12-10T08:04:18.580Z,53.47
2023-12-10T08:07:04.190Z,56.35
2023-12-10T08:09:49.775Z,63.00
2023-12-10T08:12:36.332Z,63.08
2023-12-10T08:15:22.757Z,61.28
2023-12-10T08:18:09.232Z,70.50
2023-12-10T08:20:55.697Z,56.42
2023-12-10T08:23:41.796Z,57.90
2023-12-10T08:26:27.824Z,62.63
2023-12-10T08:29:13.420Z,56.38
2023-12-10T08:31:58.826Z,58.72
2023-12-10T08:34:44.752Z,59.08
2023-12-10T08:37:31.064Z,59.70
2023-12-10T08:40:17.977Z,64.55
2023-12-10T08:43:03.827Z,61.03
2023-12-10T08:45:49.382Z,75.72
2023-12-10T08:48:35.153Z,60.13
2023-12-10T08:51:20.989Z,57.58
2023-12-10T08:54:06.455Z,52.33
2023-12-10T08:56:52.155Z,61.88
2023-12-10T08:59:37.773Z,62.92
2023-12-10T09:02:23.382Z,61.17
2023-12-10T09:05:09.865Z,57.70
2023-12-10T09:07:55.636Z,61.97
2023-12-10T09:10:41.125Z,68.22
2023-12-10T09:13:27.987Z,90.60
2023-12-10T09:16:13.527Z,75.03
2023-12-10T09:18:59.287Z,73.57
2023-12-10T09:21:46.418Z,68.22
2023-12-10T09:24:32.545Z,66.47
2023-12-10T09:27:18.499Z,74.35
2023-12-10T09:30:04.593Z,65.78
2023-12-10T09:32:50.536Z,72.65
2023-12-10T09:35:36.765Z,70.40
2023-12-10T09:38:22.518Z,71.40
2023-12-10T09:41:08.387Z,72.65
2023-12-10T09:43:54.278Z,72.32
2023-12-10T09:46:40.556Z,76.43
2023-12-10T09:49:28.827Z,75.18
2023-12-10T09:52:15.270Z,75.75
2023-12-10T09:55:03.711Z,74.35
2023-12-10T09:57:50.131Z,70.03
2023-12-10T10:00:36.029Z,71.68
2023-12-10T10:03:22.467Z,77.53
2023-12-10T10:06:09.618Z,78.63
2023-12-10T10:08:57.838Z,74.70
2023-12-10T10:11:49.316Z,78.07
2023-12-10T10:14:36.934Z,86.85
2023-12-10T10:17:32.642Z,76.75
2023-12-10T10:20:18.476Z,73.80
2023-12-10T10:23:05.319Z,69.30
2023-12-10T10:25:51.922Z,72.75
2023-12-10T10:28:38.536Z,77.82
2023-12-10T10:31:24.673Z,75.35
2023-12-10T10:34:10.694Z,76.65
2023-12-10T10:36:56.457Z,112.85
2023-12-10T10:39:47.680Z,214.20
2023-12-10T10:42:36.280Z,121.50
2023-12-10T10:45:22.154Z,129.05
2023-12-10T10:48:09.449Z,84.85
2023-12-10T10:50:57.049Z,72.85
2023-12-10T10:53:43.381Z,74.93
2023-12-10T10:56:29.078Z,77.13
2023-12-10T10:59:32.710Z,78.25
2023-12-10T11:02:20.582Z,79.70
2023-12-10T11:05:06.967Z,76.53
2023-12-10T11:07:52.546Z,69.80
2023-12-10T11:10:51.207Z,78.78
2023-12-10T11:13:48.456Z,82.28
2023-12-10T11:16:37.984Z,73.07
2023-12-10T11:19:24.282Z,76.80
2023-12-10T11:22:10.462Z,78.05
2023-12-10T11:25:00.133Z,92.70
2023-12-10T11:27:45.862Z,83.72
2023-12-10T11:30:31.648Z,84.53
2023-12-10T11:33:17.984Z,78.70
2023-12-10T11:36:33.044Z,74.25
2023-12-10T11:39:15.239Z,72.70
2023-12-10T11:42:06.392Z,115.32
2023-12-10T11:44:52.927Z,77.28
2023-12-10T11:47:38.720Z,73.97
2023-12-10T11:50:24.754Z,77.30
2023-12-10T11:53:10.341Z,79.70
2023-12-10T11:55:56.496Z,76.03
2023-12-10T11:58:46.252Z,75.53
2023-12-10T12:01:33.006Z,87.72
2023-12-10T12:04:19.669Z,75.78
2023-12-10T12:07:05.555Z,80.05
2023-12-10T12:09:53.214Z,74.43
2023-12-10T12:12:47.529Z,71.28
2023-12-10T12:15:35.009Z,80.45
2023-12-10T12:18:26.416Z,76.45
2023-12-10T12:21:12.417Z,78.60
2023-12-10T12:23:58.106Z,83.10
2023-12-10T12:26:51.094Z,72.82
2023-12-10T12:29:37.010Z,78.38
2023-12-10T12:32:29.527Z,75.13
2023-12-10T12:35:20.571Z,77.22
2023-12-10T12:38:06.200Z,72.68
2023-12-10T12:40:52.263Z,72.15
2023-12-10T12:43:37.920Z,73.43
2023-12-10T12:46:23.793Z,76.47
2023-12-10T12:49:11.375Z,76.30
2023-12-10T12:51:57.027Z,124.53
2023-12-10T12:54:43.599Z,81.13
2023-12-10T12:57:30.041Z,78.25
2023-12-10T13:00:18.539Z,83.88
2023-12-10T13:03:04.592Z,88.68
2023-12-10T13:05:50.487Z,78.30
2023-12-10T13:08:36.092Z,75.72
2023-12-10T13:11:21.529Z,75.50
2023-12-10T13:14:07.299Z,75.22
2023-12-10T13:16:53.775Z,78.72
2023-12-10T13:19:41.783Z,73.13
2023-12-10T13:22:27.671Z,82.30
2023-12-10T13:25:13.268Z,71.82
2023-12-10T13:27:59.291Z,79.05
2023-12-10T13:30:45.282Z,80.50
2023-12-10T13:33:31.066Z,84.63
2023-12-10T13:36:17.149Z,80.32
2023-12-10T13:39:05.529Z,81.07
2023-12-10T13:41:51.113Z,93.93
2023-12-10T13:44:36.787Z,99.30
2023-12-10T13:47:22.309Z,90.32
2023-12-10T13:50:08.266Z,82.70
2023-12-10T13:52:54.095Z,101.20
2023-12-10T13:55:42.096Z,93.07
2023-12-10T13:58:30.335Z,104.35
2023-12-10T14:01:17.031Z,86.63
2023-12-10T14:04:03.819Z,88.82
2023-12-10T14:06:49.584Z,97.72
2023-12-10T14:09:37.818Z,100.55
2023-12-10T14:12:23.647Z,89.10
2023-12-10T14:15:10.302Z,94.47
2023-12-10T14:17:56.165Z,92.28
2023-12-10T14:20:42.204Z,86.63
2023-12-10T14:23:28.269Z,97.30
2023-12-10T14:26:14.325Z,78.80
2023-12-10T14:29:00.045Z,87.50
2023-12-10T14:31:45.789Z,93.05
2023-12-10T14:34:31.555Z,91.13
2023-12-10T14:37:17.503Z,87.50
2023-12-10T14:40:06.331Z,88.63
2023-12-10T14:42:52.040Z,88.45
2023-12-10T14:45:37.611Z,84.45
2023-12-10T14:48:23.766Z,100.03
2023-12-10T14:51:10.023Z,93.97
2023-12-10T14:53:56.077Z,98.32
2023-12-10T14:56:42.055Z,92.53
2023-12-10T14:59:27.369Z,99.18
2023-12-10T15:02:13.241Z,92.88
2023-12-10T15:04:58.923Z,106.05
2023-12-10T15:07:44.561Z,89.43
2023-12-10T15:10:31.959Z,92.20
2023-12-10T15:13:17.708Z,95.65
2023-12-10T15:16:03.530Z,93.53
2023-12-10T15:18:49.487Z,87.22
2023-12-10T15:21:35.406Z,95.88
2023-12-10T15:24:20.916Z,92.72
2023-12-10T15:27:06.977Z,97.22
2023-12-10T15:29:52.895Z,98.43
2023-12-10T15:32:39.679Z,121.75
2023-12-10T15:35:25.273Z,126.20
2023-12-10T15:38:10.787Z,119.72
2023-12-10T15:40:56.316Z,115.20
2023-12-10T15:43:41.773Z,138.55
2023-12-10T15:46:27.765Z,135.25
2023-12-10T15:49:13.522Z,146.90
2023-12-10T15:52:01.334Z,139.23
2023-12-10T15:54:47.145Z,105.32
2023-12-10T15:57:34.667Z,88.72
2023-12-10T16:00:21.076Z,86.47
2023-12-10T16:03:09.127Z,89.65
2023-12-10T16:05:54.910Z,93.43
2023-12-10T16:08:42.134Z,102.40
2023-12-10T16:11:27.921Z,115.25
2023-12-10T16:14:13.498Z,100.97
2023-12-10T16:16:59.068Z,107.03
2023-12-10T16:19:45.057Z,102.93
2023-12-10T16:22:31.146Z,103.78
2023-12-10T16:25:19.276Z,98.65
2023-12-10T16:28:06.002Z,97.20
2023-12-10T16:30:52.136Z,105.53
2023-12-10T16:33:38.647Z,93.85
2023-12-10T16:36:27.419Z,106.72
2023-12-10T16:39:12.925Z,107.13
2023-12-10T16:41:58.615Z,94.53
2023-12-10T16:44:44.062Z,91.00
2023-12-10T16:47:30.016Z,110.55
2023-12-10T16:50:16.612Z,94.00
2023-12-10T16:53:02.303Z,99.32
2023-12-10T16:55:50.268Z,96.95
2023-12-10T16:58:36.085Z,99.50
2023-12-10T17:01:21.942Z,108.20
2023-12-10T17:04:07.918Z,93.93
2023-12-10T17:06:53.966Z,95.97
2023-12-10T17:09:41.169Z,100.65
2023-12-10T17:12:27.254Z,104.70
2023-12-10T17:15:13.022Z,97.85
2023-12-10T17:17:59.046Z,93.10
2023-12-10T17:20:44.835Z,103.90
2023-12-10T17:23:30.426Z,114.82
2023-12-10T17:26:19.113Z,96.28
2023-12-10T17:29:04.771Z,106.85
2023-12-10T17:31:50.360Z,104.18
2023-12-10T17:34:41.257Z,100.32
2023-12-10T17:37:30.535Z,114.95
2023-12-10T17:40:16.617Z,103.85
2023-12-10T17:43:02.530Z,109.93
2023-12-10T17:45:48.433Z,108.28
2023-12-10T17:48:34.073Z,101.57
2023-12-10T17:51:20.143Z,105.35
2023-12-10T17:54:06.376Z,107.35
2023-12-10T17:56:52.496Z,100.13
2023-12-10T17:59:38.301Z,86.82
2023-12-10T18:02:23.983Z,81.28
2023-12-10T18:05:11.301Z,95.88
2023-12-10T18:07:56.975Z,86.03
2023-12-10T18:10:42.760Z,85.43
2023-12-10T18:13:28.278Z,80.82
2023-12-10T18:16:21.323Z,101.63
2023-12-10T18:19:07.240Z,79.30
2023-12-10T18:21:52.863Z,87.93
2023-12-10T18:24:38.693Z,75.07
2023-12-10T18:27:25.842Z,82.78
2023-12-10T18:30:12.066Z,88.03
2023-12-10T18:33:00.922Z,84.20
2023-12-10T18:35:47.153Z,145.07
2023-12-10T18:38:33.877Z,96.45
2023-12-10T18:41:19.620Z,96.07
2023-12-10T18:44:06.177Z,102.07
2023-12-10T18:46:52.304Z,103.43
2023-12-10T18:49:38.034Z,113.68
2023-12-10T18:52:24.278Z,98.15
2023-12-10T18:55:09.916Z,111.28
2023-12-10T18:57:55.593Z,115.18
2023-12-10T19:00:42.737Z,130.15
2023-12-10T19:03:31.386Z,126.85
2023-12-10T19:06:17.550Z,139.05
2023-12-10T19:09:04.864Z,120.72
2023-12-10T19:11:50.811Z,139.52
2023-12-10T19:14:36.512Z,118.68
2023-12-10T19:17:22.143Z,116.50
2023-12-10T19:20:21.798Z,125.22
2023-12-10T19:23:07.441Z,117.38
2023-12-10T19:25:57.560Z,113.35
2023-12-10T19:28:43.288Z,141.52
2023-12-10T19:31:29.185Z,136.25
2023-12-10T19:34:14.890Z,132.23
2023-12-10T19:37:00.807Z,149.05
2023-12-10T19:39:46.397Z,159.52
2023-12-10T19:42:32.255Z,199.32
2023-12-10T19:45:18.827Z,192.93
2023-12-10T19:48:04.909Z,181.77
2023-12-10T19:50:50.894Z,181.07
2023-12-10T19:53:36.882Z,185.73
2023-12-10T19:56:41.512Z,177.60
2023-12-10T19:59:28.149Z,178.52
2023-12-10T20:02:13.908Z,134.23
2023-12-10T20:04:59.671Z,103.97
2023-12-10T20:07:45.424Z,103.28
2023-12-10T20:10:32.988Z,143.88
2023-12-10T20:13:18.538Z,124.55
2023-12-10T20:16:05.564Z,110.15
2023-12-10T20:18:51.484Z,90.72
2023-12-10T20:21:37.261Z,89.70
2023-12-10T20:24:31.054Z,98.65
2023-12-10T20:27:23.143Z,100.60
2023-12-10T20:30:10.569Z,106.90
2023-12-10T20:32:56.691Z,139.88
2023-12-10T20:35:42.591Z,96.60
2023-12-10T20:38:28.383Z,83.80
2023-12-10T20:41:14.549Z,76.22
2023-12-10T20:44:03.289Z,85.82
2023-12-10T20:46:49.176Z,111.97
2023-12-10T20:49:35.188Z,92.10
2023-12-10T20:52:22.022Z,98.88
2023-12-10T20:55:08.334Z,81.90
2023-12-10T20:57:54.197Z,79.47
2023-12-10T21:00:40.384Z,82.93
2023-12-10T21:03:26.319Z,79.55
2023-12-10T21:06:13.233Z,75.30
2023-12-10T21:08:59.669Z,76.90
2023-12-10T21:11:48.565Z,81.43
2023-12-10T21:14:34.634Z,70.97
2023-12-10T21:17:20.392Z,63.92
2023-12-10T21:20:07.759Z,57.20
2023-12-10T21:22:56.638Z,60.72
2023-12-10T21:25:42.298Z,50.70
2023-12-10T21:28:27.869Z,44.00
2023-12-10T21:31:13.479Z,46.60
2023-12-10T21:34:01.765Z,45.67
2023-12-10T21:36:47.552Z,41.13
2023-12-10T21:39:33.289Z,41.97
2023-12-10T21:42:18.986Z,34.40
2023-12-10T21:45:05.491Z,40.60
2023-12-10T21:47:52.916Z,34.63
2023-12-10T21:50:38.903Z,36.10
2023-12-10T21:53:24.750Z,31.40
2023-12-10T21:56:10.608Z,33.47
2023-12-10T21:58:56.397Z,31.15
2023-12-10T22:01:42.083Z,27.80
2023-12-10T22:04:28.098Z,25.83
2023-12-10T22:07:14.264Z,24.10
2023-12-10T22:10:00.593Z,26.35
2023-12-10T22:12:46.416Z,26.42
2023-12-10T22:15:32.651Z,25.23
2023-12-10T22:18:19.056Z,28.30
2023-12-10T22:21:07.730Z,29.13
2023-12-10T22:23:53.813Z,24.45
2023-12-10T22:26:41.529Z,24.80
2023-12-10T22:29:26.997Z,26.05
2023-12-10T22:32:15.514Z,23.63
2023-12-10T22:35:03.497Z,28.30
2023-12-10T22:37:49.529Z,24.10
2023-12-10T22:40:35.083Z,26.40
2023-12-10T22:43:25.565Z,26.25
2023-12-10T22:46:11.497Z,24.15
2023-12-10T22:48:58.034Z,21.15
2023-12-10T22:51:45.016Z,19.67
2023-12-10T22:54:30.513Z,21.95
2023-12-10T22:57:16.379Z,18.30
2023-12-10T23:00:02.473Z,18.65
2023-12-10T23:02:50.955Z,19.25
2023-12-10T23:05:37.349Z,19.67
2023-12-10T23:08:23.511Z,18.00
2023-12-10T23:11:09.424Z,20.48
2023-12-10T23:13:55.033Z,17.50
2023-12-10T23:16:42.262Z,20.95
2023-12-10T23:19:28.614Z,15.25
2023-12-10T23:22:14.860Z,19.65
2023-12-10T23:25:00.808Z,18.98
2023-12-10T23:27:46.679Z,17.33
2023-12-10T23:30:38.552Z,14.15
2023-12-10T23:33:31.265Z,18.58
2023-12-10T23:36:17.273Z,15.90
2023-12-10T23:39:03.119Z,19.40
2023-12-10T23:41:48.658Z,19.33
2023-12-10T23:44:34.547Z,16.55
2023-12-10T23:47:20.956Z,19.90
2023-12-10T23:50:08.377Z,18.55
2023-12-10T23:52:54.704Z,26.80
2023-12-10T23:55:40.302Z,21.73
2023-12-10T23:58:28.925Z,23.77
